Terminal Aerodrome Forecast
Issued by NWS

Current Version | Previous Version | Text Only | Print | Product List | Glossary Off
Versions: 1 2 3 4 5 6 7 8 9 10 11 12 13 14 15 16

000
FTUS41 KILN 020300 AAA
TAFLCK
TAF AMD
KLCK 020309Z 0203/0224 27005KT 5SM BR OVC015
     FM020700 29008KT P6SM BKN015
     FM021400 31004KT P6SM SCT015
      TEMPO 0214/0218 BKN015=

USA.gov is the U.S. government's official web portal to all federal, state and local government web resources and services.